Newport, OR

9:23 PM PST on February 24, 2017 (GMT -0800)
15 and Oceanview | | Change Station

Elev 180 ft 44.65 °N, 124.06 °W | Updated 40 seconds ago

Mostly Cloudy
Mostly Cloudy
38.8 °F
Feels Like 35 °F
N
5.0
Wind Variable Wind from ESE

Today
High -- | Low -- °F
--% Chance of Precip.
Yesterday
High -- | Low -- °F
Precip. -- in
Pressure 30.19 in
Visibility 10.0 miles
Clouds Mostly Cloudy 3300 ft
Mostly Cloudy 3900 ft
Windchill 35 °F
Dew Point 23 °F
Humidity 54%
Rainfall 0.70 in
Snow Depth Not available.
7:01 AM 5:57 PM
Waning Crescent, 2% visible
METAR KONP 250515Z AUTO 09005KT 10SM BKN033 BKN039 02/02 A3019 RMK AO2
Pressure 30.19 in
Visibility 10.0 miles
Clouds Mostly Cloudy 3300 ft
Mostly Cloudy 3900 ft
Windchill 35 °F
Dew Point 23 °F
Humidity 54%
Rainfall 0.70 in
Snow Depth Not available.
7:01 AM 5:57 PM
Waning Crescent, 2% visible
METAR KONP 250515Z AUTO 09005KT 10SM BKN033 BKN039 02/02 A3019 RMK AO2

Get Your Daily Forecast Email!

Thanks for signing up!

Be on the lookout for a verification email in your inbox.

You'll start receiving the daily forecast at 8 AM.

×

10-Day Weather Forecast

Almanac

Astronomy

Feb. 24, 2017 Rise Set
Actual Time
Civil Twilight
Nautical Twilight
Astronomical Twilight
Moon
Length of Visible Light
Length of Day
Tomorrow will be .
, % of the Moon is Illuminated

Today's Extremes

State Highs State Lows

Community

WunderPhotos

Upload Photos

1,962,540 photos uploaded!

WunderBlog® & News

Nearby

Air Quality

  Air Quality AQ Index Pollutant
Not available.

Snow Depth

Station Depth Elevation

Earthquake Activity

City Distance Mag. Time & Date
Minimum magnitude displayed is 2.5.

Coastal Water Temperatures

Place Temperature

Stations

Nearby Weather Stations

Station Location Temp. Windchill Dew Point Humidity Wind Precip. Elev Updated Type
                   

Watches & Warnings

There are currently no watches in effect.